sensor_id;sensor_type;location;lat;lon;timestamp;P1;durP1;ratioP1;P2;durP2;ratioP2
14663;SDS011;7419;52.184;5.944;2023-02-28T00:03:10;4.89;;;2.02;;
14663;SDS011;7419;52.184;5.944;2023-02-28T00:03:29;5.05;;;1.73;;
14663;SDS011;7419;52.184;5.944;2023-02-28T00:04:29;4.54;;;2.14;;
14663;SDS011;7419;52.184;5.944;2023-02-28T00:05:29;4.07;;;2.31;;
14663;SDS011;7419;52.184;5.944;2023-02-28T00:06:29;7.04;;;3.36;;
14663;SDS011;7419;52.184;5.944;2023-02-28T00:07:29;8.15;;;3.87;;
14663;SDS011;7419;52.184;5.944;2023-02-28T00:08:29;8.66;;;3.16;;
14663;SDS011;7419;52.184;5.944;2023-02-28T00:09:29;6.85;;;2.83;;
14663;SDS011;7419;52.184;5.944;2023-02-28T00:10:30;5.93;;;2.79;;
14663;SDS011;7419;52.184;5.944;2023-02-28T00:11:29;5.22;;;2.80;;
14663;SDS011;7419;52.184;5.944;2023-02-28T00:12:29;2.93;;;2.00;;
14663;SDS011;7419;52.184;5.944;2023-02-28T00:13:29;4.54;;;2.49;;
14663;SDS011;7419;52.184;5.944;2023-02-28T00:14:29;5.21;;;2.58;;
14663;SDS011;7419;52.184;5.944;2023-02-28T00:15:29;4.79;;;1.94;;
14663;SDS011;7419;52.184;5.944;2023-02-28T00:16:29;2.61;;;1.61;;
14663;SDS011;7419;52.184;5.944;2023-02-28T00:17:29;2.69;;;1.73;;
14663;SDS011;7419;52.184;5.944;2023-02-28T00:18:30;3.24;;;1.75;;
14663;SDS011;7419;52.184;5.944;2023-02-28T00:19:30;3.73;;;1.76;;
14663;SDS011;7419;52.184;5.944;2023-02-28T00:20:30;4.38;;;2.37;;
14663;SDS011;7419;52.184;5.944;2023-02-28T00:21:30;5.07;;;2.39;;
14663;SDS011;7419;52.184;5.944;2023-02-28T00:22:30;4.07;;;2.13;;
14663;SDS011;7419;52.184;5.944;2023-02-28T00:23:30;2.96;;;2.09;;
14663;SDS011;7419;52.184;5.944;2023-02-28T00:24:30;5.06;;;1.51;;
14663;SDS011;7419;52.184;5.944;2023-02-28T00:25:30;4.38;;;2.01;;
14663;SDS011;7419;52.184;5.944;2023-02-28T00:26:30;4.92;;;2.40;;
14663;SDS011;7419;52.184;5.944;2023-02-28T00:27:31;4.56;;;2.19;;
14663;SDS011;7419;52.184;5.944;2023-02-28T00:28:30;5.06;;;1.96;;
14663;SDS011;7419;52.184;5.944;2023-02-28T00:29:30;3.50;;;2.03;;
14663;SDS011;7419;52.184;5.944;2023-02-28T00:30:30;4.35;;;1.90;;
14663;SDS011;7419;52.184;5.944;2023-02-28T00:31:30;4.37;;;2.15;;
14663;SDS011;7419;52.184;5.944;2023-02-28T00:32:30;4.76;;;1.95;;
14663;SDS011;7419;52.184;5.944;2023-02-28T00:33:30;3.13;;;2.26;;
14663;SDS011;7419;52.184;5.944;2023-02-28T00:34:30;5.39;;;2.79;;
14663;SDS011;7419;52.184;5.944;2023-02-28T00:35:30;4.60;;;2.31;;
14663;SDS011;7419;52.184;5.944;2023-02-28T00:36:30;5.09;;;2.38;;
14663;SDS011;7419;52.184;5.944;2023-02-28T00:37:31;4.62;;;2.17;;
14663;SDS011;7419;52.184;5.944;2023-02-28T00:38:30;4.71;;;2.78;;
14663;SDS011;7419;52.184;5.944;2023-02-28T00:39:30;4.33;;;2.41;;
14663;SDS011;7419;52.184;5.944;2023-02-28T00:40:30;5.21;;;2.59;;
14663;SDS011;7419;52.184;5.944;2023-02-28T00:41:30;4.20;;;2.84;;
14663;SDS011;7419;52.184;5.944;2023-02-28T00:42:30;5.04;;;2.73;;
14663;SDS011;7419;52.184;5.944;2023-02-28T00:43:32;3.69;;;2.64;;
14663;SDS011;7419;52.184;5.944;2023-02-28T00:44:31;6.51;;;3.06;;
14663;SDS011;7419;52.184;5.944;2023-02-28T00:45:31;5.28;;;2.35;;
14663;SDS011;7419;52.184;5.944;2023-02-28T00:46:31;3.04;;;2.07;;
14663;SDS011;7419;52.184;5.944;2023-02-28T00:47:31;3.75;;;2.22;;
14663;SDS011;7419;52.184;5.944;2023-02-28T00:48:31;4.32;;;2.47;;
14663;SDS011;7419;52.184;5.944;2023-02-28T00:49:31;3.75;;;2.18;;
14663;SDS011;7419;52.184;5.944;2023-02-28T00:50:31;1.92;;;1.79;;
14663;SDS011;7419;52.184;5.944;2023-02-28T00:51:31;5.25;;;2.34;;
14663;SDS011;7419;52.184;5.944;2023-02-28T00:52:31;2.39;;;2.29;;
14663;SDS011;7419;52.184;5.944;2023-02-28T00:53:31;3.58;;;2.64;;
14663;SDS011;7419;52.184;5.944;2023-02-28T00:54:31;5.74;;;2.17;;
14663;SDS011;7419;52.184;5.944;2023-02-28T00:55:31;7.51;;;2.87;;
14663;SDS011;7419;52.184;5.944;2023-02-28T00:56:31;5.85;;;2.65;;
14663;SDS011;7419;52.184;5.944;2023-02-28T00:57:31;3.00;;;1.59;;
14663;SDS011;7419;52.184;5.944;2023-02-28T00:58:32;5.39;;;1.67;;
14663;SDS011;7419;52.184;5.944;2023-02-28T00:59:32;4.73;;;1.99;;
14663;SDS011;7419;52.184;5.944;2023-02-28T01:00:32;3.91;;;1.80;;
14663;SDS011;7419;52.184;5.944;2023-02-28T01:01:32;4.02;;;1.64;;
14663;SDS011;7419;52.184;5.944;2023-02-28T01:02:32;3.66;;;1.88;;
14663;SDS011;7419;52.184;5.944;2023-02-28T01:03:32;3.63;;;1.87;;
14663;SDS011;7419;52.184;5.944;2023-02-28T01:04:32;1.99;;;1.54;;
14663;SDS011;7419;52.184;5.944;2023-02-28T01:05:32;4.58;;;1.38;;
14663;SDS011;7419;52.184;5.944;2023-02-28T01:06:32;3.02;;;1.50;;
14663;SDS011;7419;52.184;5.944;2023-02-28T01:07:32;2.05;;;1.30;;
14663;SDS011;7419;52.184;5.944;2023-02-28T01:08:32;3.32;;;1.17;;
14663;SDS011;7419;52.184;5.944;2023-02-28T01:09:32;2.51;;;1.30;;
14663;SDS011;7419;52.184;5.944;2023-02-28T01:10:32;1.84;;;1.33;;
14663;SDS011;7419;52.184;5.944;2023-02-28T01:11:32;3.59;;;1.61;;
14663;SDS011;7419;52.184;5.944;2023-02-28T01:12:32;1.15;;;1.04;;
14663;SDS011;7419;52.184;5.944;2023-02-28T01:13:32;2.48;;;1.59;;
14663;SDS011;7419;52.184;5.944;2023-02-28T01:14:32;2.95;;;1.47;;
14663;SDS011;7419;52.184;5.944;2023-02-28T01:15:32;5.18;;;1.34;;
14663;SDS011;7419;52.184;5.944;2023-02-28T01:16:32;2.16;;;1.03;;
14663;SDS011;7419;52.184;5.944;2023-02-28T01:17:33;3.87;;;1.27;;
14663;SDS011;7419;52.184;5.944;2023-02-28T01:18:32;1.23;;;1.11;;
14663;SDS011;7419;52.184;5.944;2023-02-28T01:19:32;2.75;;;0.96;;
14663;SDS011;7419;52.184;5.944;2023-02-28T01:20:33;3.72;;;1.36;;
14663;SDS011;7419;52.184;5.944;2023-02-28T01:21:33;3.85;;;1.97;;
14663;SDS011;7419;52.184;5.944;2023-02-28T01:22:34;2.67;;;1.36;;
14663;SDS011;7419;52.184;5.944;2023-02-28T01:23:33;1.22;;;1.12;;
14663;SDS011;7419;52.184;5.944;2023-02-28T01:24:33;3.29;;;1.30;;
14663;SDS011;7419;52.184;5.944;2023-02-28T01:25:33;2.07;;;1.21;;
14663;SDS011;7419;52.184;5.944;2023-02-28T01:26:33;1.65;;;0.74;;
14663;SDS011;7419;52.184;5.944;2023-02-28T01:27:33;4.20;;;1.19;;
14663;SDS011;7419;52.184;5.944;2023-02-28T01:28:33;1.08;;;1.02;;
14663;SDS011;7419;52.184;5.944;2023-02-28T01:29:33;2.87;;;1.17;;
14663;SDS011;7419;52.184;5.944;2023-02-28T01:30:33;1.31;;;1.02;;
14663;SDS011;7419;52.184;5.944;2023-02-28T01:31:33;1.52;;;1.09;;
14663;SDS011;7419;52.184;5.944;2023-02-28T01:32:33;2.02;;;1.10;;
14663;SDS011;7419;52.184;5.944;2023-02-28T01:33:34;3.35;;;1.19;;
14663;SDS011;7419;52.184;5.944;2023-02-28T01:34:33;1.98;;;0.96;;
14663;SDS011;7419;52.184;5.944;2023-02-28T01:35:34;1.06;;;1.01;;
14663;SDS011;7419;52.184;5.944;2023-02-28T01:36:34;2.29;;;1.20;;
14663;SDS011;7419;52.184;5.944;2023-02-28T01:37:34;3.06;;;1.17;;
14663;SDS011;7419;52.184;5.944;2023-02-28T01:38:34;1.44;;;1.12;;
14663;SDS011;7419;52.184;5.944;2023-02-28T01:39:34;2.62;;;1.07;;
14663;SDS011;7419;52.184;5.944;2023-02-28T01:40:34;5.13;;;1.27;;
14663;SDS011;7419;52.184;5.944;2023-02-28T01:41:34;1.34;;;0.97;;
14663;SDS011;7419;52.184;5.944;2023-02-28T01:42:34;1.11;;;0.96;;
14663;SDS011;7419;52.184;5.944;2023-02-28T01:43:52;3.60;;;1.36;;
14663;SDS011;7419;52.184;5.944;2023-02-28T01:45:34;1.50;;;0.99;;
14663;SDS011;7419;52.184;5.944;2023-02-28T01:46:35;5.22;;;0.78;;
14663;SDS011;7419;52.184;5.944;2023-02-28T01:47:35;1.40;;;1.31;;
14663;SDS011;7419;52.184;5.944;2023-02-28T01:48:35;1.67;;;1.13;;
14663;SDS011;7419;52.184;5.944;2023-02-28T01:49:34;1.41;;;0.73;;
14663;SDS011;7419;52.184;5.944;2023-02-28T01:50:35;0.80;;;0.79;;
14663;SDS011;7419;52.184;5.944;2023-02-28T01:51:37;3.90;;;1.01;;
14663;SDS011;7419;52.184;5.944;2023-02-28T01:52:34;1.94;;;1.22;;
14663;SDS011;7419;52.184;5.944;2023-02-28T01:53:37;1.48;;;0.91;;
14663;SDS011;7419;52.184;5.944;2023-02-28T01:54:34;1.52;;;1.19;;
14663;SDS011;7419;52.184;5.944;2023-02-28T01:55:35;2.46;;;1.16;;
14663;SDS011;7419;52.184;5.944;2023-02-28T01:56:35;1.45;;;0.89;;
14663;SDS011;7419;52.184;5.944;2023-02-28T01:57:36;0.93;;;0.86;;
14663;SDS011;7419;52.184;5.944;2023-02-28T01:58:35;1.55;;;1.30;;
14663;SDS011;7419;52.184;5.944;2023-02-28T01:59:36;1.12;;;0.92;;
14663;SDS011;7419;52.184;5.944;2023-02-28T02:00:35;2.34;;;1.06;;
14663;SDS011;7419;52.184;5.944;2023-02-28T02:01:35;3.69;;;1.00;;
14663;SDS011;7419;52.184;5.944;2023-02-28T02:02:35;1.66;;;0.91;;
14663;SDS011;7419;52.184;5.944;2023-02-28T02:03:35;1.42;;;1.02;;
14663;SDS011;7419;52.184;5.944;2023-02-28T02:04:37;0.92;;;0.82;;
14663;SDS011;7419;52.184;5.944;2023-02-28T02:05:36;3.02;;;1.11;;
14663;SDS011;7419;52.184;5.944;2023-02-28T02:06:37;1.22;;;0.93;;
14663;SDS011;7419;52.184;5.944;2023-02-28T02:07:36;5.70;;;1.31;;
14663;SDS011;7419;52.184;5.944;2023-02-28T02:08:35;1.58;;;0.96;;
14663;SDS011;7419;52.184;5.944;2023-02-28T02:09:36;1.91;;;1.18;;
14663;SDS011;7419;52.184;5.944;2023-02-28T02:10:36;1.74;;;1.08;;
14663;SDS011;7419;52.184;5.944;2023-02-28T02:11:36;1.90;;;1.04;;
14663;SDS011;7419;52.184;5.944;2023-02-28T02:12:41;2.61;;;0.73;;
14663;SDS011;7419;52.184;5.944;2023-02-28T02:13:38;1.91;;;1.08;;
14663;SDS011;7419;52.184;5.944;2023-02-28T02:14:40;1.94;;;1.31;;
14663;SDS011;7419;52.184;5.944;2023-02-28T02:15:38;1.70;;;0.87;;
14663;SDS011;7419;52.184;5.944;2023-02-28T02:16:39;3.32;;;1.17;;
14663;SDS011;7419;52.184;5.944;2023-02-28T02:17:37;3.06;;;1.31;;
14663;SDS011;7419;52.184;5.944;2023-02-28T02:18:38;2.94;;;0.82;;
14663;SDS011;7419;52.184;5.944;2023-02-28T02:19:44;2.21;;;0.99;;
14663;SDS011;7419;52.184;5.944;2023-02-28T02:21:44;1.18;;;0.78;;
14663;SDS011;7419;52.184;5.944;2023-02-28T02:22:43;1.55;;;1.30;;
14663;SDS011;7419;52.184;5.944;2023-02-28T02:23:51;2.21;;;1.12;;
14663;SDS011;7419;52.184;5.944;2023-02-28T02:24:42;1.81;;;1.13;;
14663;SDS011;7419;52.184;5.944;2023-02-28T02:25:37;2.13;;;1.54;;
14663;SDS011;7419;52.184;5.944;2023-02-28T02:26:44;3.37;;;1.37;;
14663;SDS011;7419;52.184;5.944;2023-02-28T02:27:39;1.92;;;1.29;;
14663;SDS011;7419;52.184;5.944;2023-02-28T02:28:44;1.84;;;1.21;;
14663;SDS011;7419;52.184;5.944;2023-02-28T02:29:41;0.78;;;0.78;;
14663;SDS011;7419;52.184;5.944;2023-02-28T02:30:47;2.70;;;1.24;;
14663;SDS011;7419;52.184;5.944;2023-02-28T02:31:54;2.31;;;0.86;;
14663;SDS011;7419;52.184;5.944;2023-02-28T02:32:44;3.84;;;1.56;;
14663;SDS011;7419;52.184;5.944;2023-02-28T02:34:39;1.07;;;0.83;;
14663;SDS011;7419;52.184;5.944;2023-02-28T02:35:39;3.20;;;1.10;;
14663;SDS011;7419;52.184;5.944;2023-02-28T02:36:37;1.43;;;1.22;;
14663;SDS011;7419;52.184;5.944;2023-02-28T02:37:38;2.30;;;1.17;;
14663;SDS011;7419;52.184;5.944;2023-02-28T02:38:38;3.18;;;1.70;;
14663;SDS011;7419;52.184;5.944;2023-02-28T02:39:39;2.24;;;1.47;;
14663;SDS011;7419;52.184;5.944;2023-02-28T02:40:38;4.42;;;1.97;;
14663;SDS011;7419;52.184;5.944;2023-02-28T02:41:39;4.41;;;2.19;;
14663;SDS011;7419;52.184;5.944;2023-02-28T02:42:39;3.41;;;2.40;;
14663;SDS011;7419;52.184;5.944;2023-02-28T02:43:38;6.73;;;2.13;;
14663;SDS011;7419;52.184;5.944;2023-02-28T02:44:40;4.47;;;2.09;;
14663;SDS011;7419;52.184;5.944;2023-02-28T02:45:39;5.16;;;2.04;;
14663;SDS011;7419;52.184;5.944;2023-02-28T02:46:39;3.90;;;2.11;;
14663;SDS011;7419;52.184;5.944;2023-02-28T02:47:38;8.30;;;2.65;;
14663;SDS011;7419;52.184;5.944;2023-02-28T02:48:38;3.70;;;2.22;;
14663;SDS011;7419;52.184;5.944;2023-02-28T02:49:38;5.32;;;2.08;;
14663;SDS011;7419;52.184;5.944;2023-02-28T02:50:38;4.17;;;2.21;;
14663;SDS011;7419;52.184;5.944;2023-02-28T02:51:38;2.67;;;1.71;;
14663;SDS011;7419;52.184;5.944;2023-02-28T02:52:39;3.72;;;1.64;;
14663;SDS011;7419;52.184;5.944;2023-02-28T02:53:40;3.94;;;2.55;;
14663;SDS011;7419;52.184;5.944;2023-02-28T02:54:39;3.55;;;1.62;;
14663;SDS011;7419;52.184;5.944;2023-02-28T02:55:39;4.44;;;2.10;;
14663;SDS011;7419;52.184;5.944;2023-02-28T02:56:38;3.22;;;2.05;;
14663;SDS011;7419;52.184;5.944;2023-02-28T02:57:40;4.22;;;1.60;;
14663;SDS011;7419;52.184;5.944;2023-02-28T02:58:40;1.98;;;1.67;;
14663;SDS011;7419;52.184;5.944;2023-02-28T02:59:39;5.45;;;2.40;;
14663;SDS011;7419;52.184;5.944;2023-02-28T03:00:39;5.33;;;1.49;;
14663;SDS011;7419;52.184;5.944;2023-02-28T03:01:38;3.82;;;2.24;;
14663;SDS011;7419;52.184;5.944;2023-02-28T03:02:39;2.56;;;1.98;;
14663;SDS011;7419;52.184;5.944;2023-02-28T03:03:39;3.82;;;2.12;;
14663;SDS011;7419;52.184;5.944;2023-02-28T03:04:40;4.01;;;1.04;;
14663;SDS011;7419;52.184;5.944;2023-02-28T03:05:39;5.96;;;1.66;;
14663;SDS011;7419;52.184;5.944;2023-02-28T03:06:39;2.36;;;1.39;;
14663;SDS011;7419;52.184;5.944;2023-02-28T03:07:39;3.81;;;1.28;;
14663;SDS011;7419;52.184;5.944;2023-02-28T03:08:39;5.41;;;1.61;;
14663;SDS011;7419;52.184;5.944;2023-02-28T03:09:39;2.85;;;1.58;;
14663;SDS011;7419;52.184;5.944;2023-02-28T03:10:39;2.55;;;1.53;;
14663;SDS011;7419;52.184;5.944;2023-02-28T03:11:40;2.01;;;0.97;;
14663;SDS011;7419;52.184;5.944;2023-02-28T03:12:40;2.48;;;1.08;;
14663;SDS011;7419;52.184;5.944;2023-02-28T03:13:42;1.49;;;1.16;;
14663;SDS011;7419;52.184;5.944;2023-02-28T03:14:40;1.81;;;1.43;;
14663;SDS011;7419;52.184;5.944;2023-02-28T03:15:42;2.80;;;1.35;;
14663;SDS011;7419;52.184;5.944;2023-02-28T03:16:45;1.41;;;0.83;;
14663;SDS011;7419;52.184;5.944;2023-02-28T03:17:44;1.92;;;1.28;;
14663;SDS011;7419;52.184;5.944;2023-02-28T03:18:40;1.25;;;0.90;;
14663;SDS011;7419;52.184;5.944;2023-02-28T03:19:44;1.27;;;0.98;;
14663;SDS011;7419;52.184;5.944;2023-02-28T03:20:40;5.11;;;1.30;;
14663;SDS011;7419;52.184;5.944;2023-02-28T03:21:40;2.48;;;1.02;;
14663;SDS011;7419;52.184;5.944;2023-02-28T03:22:44;1.05;;;0.84;;
14663;SDS011;7419;52.184;5.944;2023-02-28T03:23:41;1.57;;;0.93;;
14663;SDS011;7419;52.184;5.944;2023-02-28T03:24:41;1.99;;;0.88;;
14663;SDS011;7419;52.184;5.944;2023-02-28T03:25:43;1.83;;;1.40;;
14663;SDS011;7419;52.184;5.944;2023-02-28T03:26:41;1.70;;;0.99;;
14663;SDS011;7419;52.184;5.944;2023-02-28T03:27:41;0.93;;;0.90;;
14663;SDS011;7419;52.184;5.944;2023-02-28T03:28:41;0.77;;;0.56;;
14663;SDS011;7419;52.184;5.944;2023-02-28T03:29:41;1.99;;;0.97;;
14663;SDS011;7419;52.184;5.944;2023-02-28T03:30:41;1.06;;;0.95;;
14663;SDS011;7419;52.184;5.944;2023-02-28T03:31:41;1.51;;;0.98;;
14663;SDS011;7419;52.184;5.944;2023-02-28T03:32:40;1.08;;;0.74;;
14663;SDS011;7419;52.184;5.944;2023-02-28T03:33:42;1.57;;;1.15;;
14663;SDS011;7419;52.184;5.944;2023-02-28T03:34:41;2.02;;;0.85;;
14663;SDS011;7419;52.184;5.944;2023-02-28T03:35:41;0.80;;;0.70;;
14663;SDS011;7419;52.184;5.944;2023-02-28T03:36:41;1.99;;;0.70;;
14663;SDS011;7419;52.184;5.944;2023-02-28T03:37:41;1.67;;;0.84;;
14663;SDS011;7419;52.184;5.944;2023-02-28T03:38:41;0.67;;;0.66;;
14663;SDS011;7419;52.184;5.944;2023-02-28T03:39:42;1.08;;;0.76;;
14663;SDS011;7419;52.184;5.944;2023-02-28T03:40:41;1.47;;;1.32;;
14663;SDS011;7419;52.184;5.944;2023-02-28T03:41:42;1.47;;;0.87;;
14663;SDS011;7419;52.184;5.944;2023-02-28T03:42:41;1.22;;;0.86;;
14663;SDS011;7419;52.184;5.944;2023-02-28T03:43:41;2.07;;;0.90;;
14663;SDS011;7419;52.184;5.944;2023-02-28T03:44:41;2.08;;;1.06;;
14663;SDS011;7419;52.184;5.944;2023-02-28T03:45:41;1.36;;;0.87;;
14663;SDS011;7419;52.184;5.944;2023-02-28T03:46:42;2.97;;;0.77;;
14663;SDS011;7419;52.184;5.944;2023-02-28T03:47:41;0.68;;;0.67;;
14663;SDS011;7419;52.184;5.944;2023-02-28T03:48:42;1.03;;;0.72;;
14663;SDS011;7419;52.184;5.944;2023-02-28T03:49:42;2.82;;;1.12;;
14663;SDS011;7419;52.184;5.944;2023-02-28T03:50:41;1.16;;;0.84;;
14663;SDS011;7419;52.184;5.944;2023-02-28T03:51:41;1.53;;;1.06;;
14663;SDS011;7419;52.184;5.944;2023-02-28T03:52:42;1.14;;;0.84;;
14663;SDS011;7419;52.184;5.944;2023-02-28T03:53:42;1.64;;;0.56;;
14663;SDS011;7419;52.184;5.944;2023-02-28T03:54:42;2.64;;;1.11;;
14663;SDS011;7419;52.184;5.944;2023-02-28T03:55:42;1.07;;;0.82;;
14663;SDS011;7419;52.184;5.944;2023-02-28T03:56:43;1.77;;;1.00;;
14663;SDS011;7419;52.184;5.944;2023-02-28T03:57:43;1.15;;;1.08;;
14663;SDS011;7419;52.184;5.944;2023-02-28T03:58:42;1.15;;;0.97;;
14663;SDS011;7419;52.184;5.944;2023-02-28T03:59:42;1.54;;;0.73;;
14663;SDS011;7419;52.184;5.944;2023-02-28T04:00:43;0.86;;;0.59;;
14663;SDS011;7419;52.184;5.944;2023-02-28T04:01:42;0.87;;;0.85;;
14663;SDS011;7419;52.184;5.944;2023-02-28T04:02:41;3.74;;;0.77;;
14663;SDS011;7419;52.184;5.944;2023-02-28T04:03:42;2.40;;;0.78;;
14663;SDS011;7419;52.184;5.944;2023-02-28T04:04:42;3.28;;;0.84;;
14663;SDS011;7419;52.184;5.944;2023-02-28T04:05:46;0.53;;;0.50;;
14663;SDS011;7419;52.184;5.944;2023-02-28T04:06:42;0.92;;;0.69;;
14663;SDS011;7419;52.184;5.944;2023-02-28T04:07:42;0.83;;;0.56;;
14663;SDS011;7419;52.184;5.944;2023-02-28T04:08:42;3.02;;;0.69;;
14663;SDS011;7419;52.184;5.944;2023-02-28T04:09:42;0.72;;;0.72;;
14663;SDS011;7419;52.184;5.944;2023-02-28T04:10:42;0.72;;;0.57;;
14663;SDS011;7419;52.184;5.944;2023-02-28T04:11:43;1.73;;;1.04;;
14663;SDS011;7419;52.184;5.944;2023-02-28T04:12:42;0.67;;;0.61;;
14663;SDS011;7419;52.184;5.944;2023-02-28T04:13:42;1.61;;;0.49;;
14663;SDS011;7419;52.184;5.944;2023-02-28T04:14:42;0.65;;;0.59;;
14663;SDS011;7419;52.184;5.944;2023-02-28T04:15:42;1.66;;;0.59;;
14663;SDS011;7419;52.184;5.944;2023-02-28T04:16:42;1.52;;;0.87;;
14663;SDS011;7419;52.184;5.944;2023-02-28T04:17:42;0.97;;;0.52;;
14663;SDS011;7419;52.184;5.944;2023-02-28T04:18:42;1.45;;;0.75;;
14663;SDS011;7419;52.184;5.944;2023-02-28T04:19:42;2.08;;;0.86;;
14663;SDS011;7419;52.184;5.944;2023-02-28T04:20:43;2.01;;;0.73;;
14663;SDS011;7419;52.184;5.944;2023-02-28T04:21:44;1.25;;;0.83;;
14663;SDS011;7419;52.184;5.944;2023-02-28T04:22:43;2.05;;;0.89;;
14663;SDS011;7419;52.184;5.944;2023-02-28T04:23:43;0.99;;;0.70;;
14663;SDS011;7419;52.184;5.944;2023-02-28T04:24:43;1.15;;;0.72;;
14663;SDS011;7419;52.184;5.944;2023-02-28T04:25:43;2.48;;;0.56;;
14663;SDS011;7419;52.184;5.944;2023-02-28T04:26:44;0.79;;;0.68;;
14663;SDS011;7419;52.184;5.944;2023-02-28T04:27:43;1.35;;;1.23;;
14663;SDS011;7419;52.184;5.944;2023-02-28T04:28:43;0.65;;;0.64;;
14663;SDS011;7419;52.184;5.944;2023-02-28T04:29:43;1.50;;;0.70;;
14663;SDS011;7419;52.184;5.944;2023-02-28T04:30:43;0.80;;;0.61;;
14663;SDS011;7419;52.184;5.944;2023-02-28T04:31:43;1.79;;;0.50;;
14663;SDS011;7419;52.184;5.944;2023-02-28T04:32:43;0.89;;;0.42;;
14663;SDS011;7419;52.184;5.944;2023-02-28T04:33:43;1.14;;;0.57;;
14663;SDS011;7419;52.184;5.944;2023-02-28T04:34:43;0.64;;;0.64;;
14663;SDS011;7419;52.184;5.944;2023-02-28T04:35:43;0.98;;;0.59;;
14663;SDS011;7419;52.184;5.944;2023-02-28T04:36:43;3.34;;;0.83;;
14663;SDS011;7419;52.184;5.944;2023-02-28T04:37:43;2.23;;;0.82;;
14663;SDS011;7419;52.184;5.944;2023-02-28T04:38:44;1.71;;;0.59;;
14663;SDS011;7419;52.184;5.944;2023-02-28T04:39:44;1.15;;;0.70;;
14663;SDS011;7419;52.184;5.944;2023-02-28T04:40:44;0.93;;;0.90;;
14663;SDS011;7419;52.184;5.944;2023-02-28T04:41:44;0.76;;;0.76;;
14663;SDS011;7419;52.184;5.944;2023-02-28T04:42:44;4.08;;;0.86;;
14663;SDS011;7419;52.184;5.944;2023-02-28T04:43:44;1.52;;;0.85;;
14663;SDS011;7419;52.184;5.944;2023-02-28T04:44:44;0.73;;;0.68;;
14663;SDS011;7419;52.184;5.944;2023-02-28T04:45:44;1.93;;;1.08;;
14663;SDS011;7419;52.184;5.944;2023-02-28T04:46:44;1.06;;;0.69;;
14663;SDS011;7419;52.184;5.944;2023-02-28T04:47:44;1.12;;;1.06;;
14663;SDS011;7419;52.184;5.944;2023-02-28T04:48:44;0.78;;;0.65;;
14663;SDS011;7419;52.184;5.944;2023-02-28T04:49:44;2.45;;;0.65;;
14663;SDS011;7419;52.184;5.944;2023-02-28T04:50:44;0.76;;;0.74;;
14663;SDS011;7419;52.184;5.944;2023-02-28T04:51:44;1.76;;;1.15;;
14663;SDS011;7419;52.184;5.944;2023-02-28T04:52:44;0.94;;;0.77;;
14663;SDS011;7419;52.184;5.944;2023-02-28T04:53:45;1.29;;;1.03;;
14663;SDS011;7419;52.184;5.944;2023-02-28T04:54:44;1.37;;;0.48;;
14663;SDS011;7419;52.184;5.944;2023-02-28T04:55:44;2.05;;;0.99;;
14663;SDS011;7419;52.184;5.944;2023-02-28T04:56:44;1.53;;;0.90;;
14663;SDS011;7419;52.184;5.944;2023-02-28T04:57:45;0.73;;;0.58;;
14663;SDS011;7419;52.184;5.944;2023-02-28T04:58:45;0.60;;;0.54;;
14663;SDS011;7419;52.184;5.944;2023-02-28T04:59:45;2.50;;;0.79;;
14663;SDS011;7419;52.184;5.944;2023-02-28T05:00:45;0.95;;;0.73;;
14663;SDS011;7419;52.184;5.944;2023-02-28T05:01:45;1.86;;;0.78;;
14663;SDS011;7419;52.184;5.944;2023-02-28T05:02:45;1.82;;;0.79;;
14663;SDS011;7419;52.184;5.944;2023-02-28T05:03:45;1.12;;;0.93;;
14663;SDS011;7419;52.184;5.944;2023-02-28T05:04:45;0.59;;;0.59;;
14663;SDS011;7419;52.184;5.944;2023-02-28T05:05:45;1.26;;;0.91;;
14663;SDS011;7419;52.184;5.944;2023-02-28T05:06:45;1.21;;;0.91;;
14663;SDS011;7419;52.184;5.944;2023-02-28T05:07:45;0.92;;;0.90;;
14663;SDS011;7419;52.184;5.944;2023-02-28T05:08:45;0.69;;;0.66;;
14663;SDS011;7419;52.184;5.944;2023-02-28T05:09:45;2.41;;;1.00;;
14663;SDS011;7419;52.184;5.944;2023-02-28T05:10:45;1.10;;;0.87;;
14663;SDS011;7419;52.184;5.944;2023-02-28T05:11:45;1.62;;;0.64;;
14663;SDS011;7419;52.184;5.944;2023-02-28T05:12:45;3.35;;;0.71;;
14663;SDS011;7419;52.184;5.944;2023-02-28T05:13:45;1.11;;;0.84;;
14663;SDS011;7419;52.184;5.944;2023-02-28T05:14:45;0.81;;;0.61;;
14663;SDS011;7419;52.184;5.944;2023-02-28T05:15:45;0.72;;;0.70;;
14663;SDS011;7419;52.184;5.944;2023-02-28T05:16:46;1.53;;;1.06;;
14663;SDS011;7419;52.184;5.944;2023-02-28T05:17:46;1.43;;;0.82;;
14663;SDS011;7419;52.184;5.944;2023-02-28T05:18:46;0.57;;;0.43;;
14663;SDS011;7419;52.184;5.944;2023-02-28T05:19:46;4.78;;;0.68;;
14663;SDS011;7419;52.184;5.944;2023-02-28T05:20:46;1.93;;;0.60;;
14663;SDS011;7419;52.184;5.944;2023-02-28T05:21:49;0.87;;;0.52;;
14663;SDS011;7419;52.184;5.944;2023-02-28T05:22:46;0.95;;;0.59;;
14663;SDS011;7419;52.184;5.944;2023-02-28T05:23:46;0.53;;;0.52;;
14663;SDS011;7419;52.184;5.944;2023-02-28T05:24:46;2.05;;;0.73;;
14663;SDS011;7419;52.184;5.944;2023-02-28T05:25:46;0.64;;;0.53;;
14663;SDS011;7419;52.184;5.944;2023-02-28T05:26:46;1.69;;;0.49;;
14663;SDS011;7419;52.184;5.944;2023-02-28T05:27:46;1.16;;;0.96;;
14663;SDS011;7419;52.184;5.944;2023-02-28T05:28:46;0.84;;;0.80;;
14663;SDS011;7419;52.184;5.944;2023-02-28T05:29:46;0.81;;;0.66;;
14663;SDS011;7419;52.184;5.944;2023-02-28T05:30:46;0.68;;;0.60;;
14663;SDS011;7419;52.184;5.944;2023-02-28T05:31:46;0.90;;;0.66;;
14663;SDS011;7419;52.184;5.944;2023-02-28T05:32:49;1.51;;;1.13;;
14663;SDS011;7419;52.184;5.944;2023-02-28T05:33:47;0.43;;;0.42;;
14663;SDS011;7419;52.184;5.944;2023-02-28T05:34:47;2.35;;;0.76;;
14663;SDS011;7419;52.184;5.944;2023-02-28T05:35:47;3.35;;;1.08;;
14663;SDS011;7419;52.184;5.944;2023-02-28T05:36:47;1.67;;;0.67;;
14663;SDS011;7419;52.184;5.944;2023-02-28T05:37:47;2.52;;;0.61;;
14663;SDS011;7419;52.184;5.944;2023-02-28T05:38:47;0.84;;;0.58;;
14663;SDS011;7419;52.184;5.944;2023-02-28T05:39:47;2.39;;;0.93;;
14663;SDS011;7419;52.184;5.944;2023-02-28T05:40:47;0.75;;;0.58;;
14663;SDS011;7419;52.184;5.944;2023-02-28T05:41:47;1.06;;;0.81;;
14663;SDS011;7419;52.184;5.944;2023-02-28T05:42:47;1.70;;;0.92;;
14663;SDS011;7419;52.184;5.944;2023-02-28T05:43:47;1.73;;;0.60;;
14663;SDS011;7419;52.184;5.944;2023-02-28T05:44:47;2.02;;;0.75;;
14663;SDS011;7419;52.184;5.944;2023-02-28T05:45:47;0.80;;;0.62;;
14663;SDS011;7419;52.184;5.944;2023-02-28T05:46:47;1.24;;;0.51;;
14663;SDS011;7419;52.184;5.944;2023-02-28T05:47:47;0.67;;;0.52;;
14663;SDS011;7419;52.184;5.944;2023-02-28T05:48:48;0.96;;;0.68;;
14663;SDS011;7419;52.184;5.944;2023-02-28T05:49:48;1.36;;;0.68;;
14663;SDS011;7419;52.184;5.944;2023-02-28T05:50:48;0.64;;;0.58;;
14663;SDS011;7419;52.184;5.944;2023-02-28T05:51:48;1.28;;;0.85;;
14663;SDS011;7419;52.184;5.944;2023-02-28T05:52:49;0.44;;;0.44;;
14663;SDS011;7419;52.184;5.944;2023-02-28T05:53:48;1.19;;;1.00;;
14663;SDS011;7419;52.184;5.944;2023-02-28T05:54:48;1.49;;;0.60;;
14663;SDS011;7419;52.184;5.944;2023-02-28T05:55:48;1.03;;;0.92;;
14663;SDS011;7419;52.184;5.944;2023-02-28T05:56:48;1.66;;;1.03;;
14663;SDS011;7419;52.184;5.944;2023-02-28T05:57:48;0.83;;;0.75;;
14663;SDS011;7419;52.184;5.944;2023-02-28T05:58:48;1.19;;;0.82;;
14663;SDS011;7419;52.184;5.944;2023-02-28T05:59:48;1.39;;;0.90;;
14663;SDS011;7419;52.184;5.944;2023-02-28T06:00:48;1.13;;;0.76;;
14663;SDS011;7419;52.184;5.944;2023-02-28T06:01:48;1.55;;;0.93;;
14663;SDS011;7419;52.184;5.944;2023-02-28T06:02:48;1.49;;;0.80;;
14663;SDS011;7419;52.184;5.944;2023-02-28T06:03:48;0.95;;;0.55;;
14663;SDS011;7419;52.184;5.944;2023-02-28T06:04:48;1.14;;;0.71;;
14663;SDS011;7419;52.184;5.944;2023-02-28T06:05:48;0.80;;;0.77;;
14663;SDS011;7419;52.184;5.944;2023-02-28T06:06:49;1.67;;;0.72;;
14663;SDS011;7419;52.184;5.944;2023-02-28T06:07:48;0.81;;;0.79;;
14663;SDS011;7419;52.184;5.944;2023-02-28T06:08:49;0.85;;;0.77;;
14663;SDS011;7419;52.184;5.944;2023-02-28T06:09:49;0.85;;;0.85;;
14663;SDS011;7419;52.184;5.944;2023-02-28T06:10:49;1.10;;;0.66;;
14663;SDS011;7419;52.184;5.944;2023-02-28T06:11:49;1.83;;;0.66;;